Time;durP1;ratioP1;P1;durP2;ratioP2;P2;SDS_P1;SDS_P2;PMS_P1;PMS_P2;Temp;Humidity;BMP_temperature;BMP_pressure;BME280_temperature;BME280_humidity;BME280_pressure;Samples;Min_cycle;Max_cycle;Signal;HPM_P1;HPM_P2
2022/09/23 00:02:27;;;;;;;3.08;2.28;;;20.50;55.40;;;;;;6194361;28;20105;-74
2022/09/23 00:05:29;;;;;;;5.40;2.80;;;20.50;55.30;;;;;;6193560;28;20105;-73
2022/09/23 00:08:31;;;;;;;3.63;2.28;;;20.50;55.30;;;;;;6192113;28;20096;-73
2022/09/23 00:11:31;;;;;;;3.15;2.15;;;20.50;55.30;;;;;;6194078;28;20026;-73
2022/09/23 00:14:32;;;;;;;3.63;2.25;;;20.50;55.30;;;;;;6193923;28;20641;-74
2022/09/23 00:17:33;;;;;;;3.05;2.13;;;20.50;55.40;;;;;;6193651;28;20026;-73
2022/09/23 00:20:35;;;;;;;3.65;2.25;;;20.50;55.40;;;;;;6193994;28;20112;-74
2022/09/23 00:23:37;;;;;;;3.50;2.10;;;20.50;55.40;;;;;;6193745;28;20049;-73
2022/09/23 00:26:37;;;;;;;3.85;2.40;;;20.50;55.40;;;;;;6193830;28;20393;-73
2022/09/23 00:29:38;;;;;;;3.20;2.33;;;20.50;55.40;;;;;;6193489;28;20105;-74
2022/09/23 00:32:39;;;;;;;2.53;2.05;;;20.50;55.40;;;;;;6193457;28;20126;-73
2022/09/23 00:35:40;;;;;;;3.40;2.42;;;20.50;55.40;;;;;;6191858;28;20031;-73
2022/09/23 00:38:41;;;;;;;2.25;1.83;;;20.50;55.40;;;;;;6193249;28;20026;-73
2022/09/23 00:41:41;;;;;;;3.15;2.15;;;20.50;55.40;;;;;;6193784;28;20058;-73
2022/09/23 00:44:51;;;;;;;3.08;2.10;;;20.50;55.40;;;;;;6193717;28;20041;-74
2022/09/23 00:48:00;;;;;;;2.53;2.13;;;20.50;55.50;;;;;;6193240;28;20089;-73
2022/09/23 00:51:01;;;;;;;3.60;2.35;;;20.50;56.20;;;;;;6193014;28;20050;-73
2022/09/23 00:54:02;;;;;;;2.97;2.30;;;20.50;55.50;;;;;;6193188;28;20049;-73
2022/09/23 00:57:04;;;;;;;3.58;2.55;;;20.50;55.50;;;;;;6193256;28;20169;-73
2022/09/23 01:00:06;;;;;;;4.10;2.53;;;20.50;56.20;;;;;;6191748;28;20066;-73
2022/09/23 01:03:08;;;;;;;3.15;2.30;;;20.50;55.40;;;;;;6193768;28;20118;-73
2022/09/23 01:06:09;;;;;;;3.83;2.42;;;20.50;55.40;;;;;;6191057;28;20026;-73
2022/09/23 01:09:10;;;;;;;3.53;2.00;;;20.50;55.50;;;;;;6191704;28;20032;-73
2022/09/23 01:12:42;;;;;;;3.30;2.33;;;20.50;55.60;;;;;;6192087;28;20363;-73
2022/09/23 01:15:54;;;;;;;3.20;2.10;;;20.50;55.60;;;;;;6192959;28;20023;-73
2022/09/23 01:19:08;;;;;;;4.45;2.10;;;20.50;55.50;;;;;;6193404;28;20038;-74
2022/09/23 01:22:51;;;;;;;3.50;2.13;;;20.50;55.50;;;;;;6193112;28;20041;-73
2022/09/23 01:26:19;;;;;;;3.92;2.53;;;20.50;55.60;;;;;;6192302;28;20030;-73
2022/09/23 01:30:05;;;;;;;2.97;2.03;;;20.50;55.60;;;;;;6192397;28;20023;-75
2022/09/23 01:33:21;;;;;;;2.95;2.20;;;20.50;55.50;;;;;;6168987;28;20038;-73
2022/09/23 01:36:38;;;;;;;3.42;2.42;;;20.50;55.70;;;;;;6168962;28;20035;-73
2022/09/23 01:39:46;;;;;;;3.10;2.28;;;20.50;55.50;;;;;;6179613;28;20057;-73
2022/09/23 01:43:04;;;;;;;2.92;2.22;;;20.50;55.60;;;;;;6193057;28;20038;-74
2022/09/23 01:46:26;;;;;;;4.88;2.45;;;20.50;55.60;;;;;;6192543;28;20366;-73
2022/09/23 01:49:41;;;;;;;3.15;2.40;;;20.50;55.50;;;;;;6193040;28;20065;-74
2022/09/23 01:52:46;;;;;;;3.73;2.57;;;20.50;55.50;;;;;;6197197;28;20019;-73
2022/09/23 01:55:56;;;;;;;2.90;2.13;;;20.50;55.60;;;;;;6197171;28;20089;-74
2022/09/23 01:59:02;;;;;;;3.50;2.30;;;20.50;55.50;;;;;;6195408;28;20069;-73
2022/09/23 02:02:13;;;;;;;2.30;1.73;;;20.50;55.60;;;;;;6195128;28;20034;-73
2022/09/23 02:05:18;;;;;;;4.13;2.28;;;20.50;55.60;;;;;;6196807;28;20034;-73
2022/09/23 02:08:36;;;;;;;3.17;2.20;;;20.50;55.60;;;;;;6196926;28;20030;-73
2022/09/23 02:11:42;;;;;;;2.80;2.03;;;20.50;55.60;;;;;;6196651;28;20061;-74
2022/09/23 02:14:49;;;;;;;3.95;2.35;;;20.50;55.60;;;;;;6196513;28;20034;-73
2022/09/23 02:17:52;;;;;;;3.65;2.63;;;20.50;55.60;;;;;;6196904;28;20022;-73
2022/09/23 02:20:59;;;;;;;2.92;2.20;;;20.50;55.60;;;;;;6195878;28;20413;-74
2022/09/23 02:24:10;;;;;;;3.67;2.25;;;20.50;55.60;;;;;;6196690;28;20051;-74
2022/09/23 02:27:21;;;;;;;2.55;2.00;;;20.50;55.70;;;;;;6172101;28;20119;-73
2022/09/23 02:30:28;;;;;;;2.47;1.85;;;20.50;55.60;;;;;;6184779;28;20049;-73
2022/09/23 02:33:42;;;;;;;3.05;2.15;;;20.60;55.70;;;;;;6196307;28;20018;-73
2022/09/23 02:36:48;;;;;;;3.00;2.20;;;20.50;55.60;;;;;;6196230;28;20434;-74
2022/09/23 02:40:05;;;;;;;3.03;2.35;;;20.50;55.60;;;;;;6195722;28;20420;-74
2022/09/23 02:43:12;;;;;;;3.13;1.92;;;20.50;55.60;;;;;;6196239;28;20184;-73
2022/09/23 02:46:14;;;;;;;1.85;1.65;;;20.50;55.70;;;;;;6199299;28;20218;-73
2022/09/23 02:49:23;;;;;;;3.25;2.20;;;20.50;55.70;;;;;;6196091;28;20383;-74
2022/09/23 02:52:24;;;;;;;2.67;2.08;;;20.50;55.70;;;;;;6195544;28;20036;-74
2022/09/23 02:55:30;;;;;;;4.05;2.20;;;20.50;55.60;;;;;;6195508;28;20034;-74
2022/09/23 02:58:31;;;;;;;3.63;2.40;;;20.50;55.60;;;;;;6195870;28;20027;-74
2022/09/23 03:01:32;;;;;;;3.22;2.08;;;20.50;55.60;;;;;;6195451;28;20030;-73
2022/09/23 03:04:33;;;;;;;3.17;2.42;;;20.50;55.70;;;;;;6195696;28;20048;-73
2022/09/23 03:08:11;;;;;;;2.85;2.15;;;20.50;55.70;;;;;;6195304;28;20421;-74
2022/09/23 03:11:12;;;;;;;3.35;2.30;;;20.50;55.70;;;;;;6194795;28;20018;-73
2022/09/23 03:14:29;;;;;;;3.00;2.15;;;20.50;55.60;;;;;;6195708;28;20122;-73
2022/09/23 03:17:51;;;;;;;3.17;2.20;;;20.50;55.70;;;;;;6195179;28;20031;-73
2022/09/23 03:20:58;;;;;;;2.95;2.00;;;20.50;55.60;;;;;;6194817;28;20031;-72
2022/09/23 03:24:01;;;;;;;2.97;2.20;;;20.50;55.70;;;;;;6194947;28;20058;-73
2022/09/23 03:27:12;;;;;;;4.18;2.20;;;20.50;55.70;;;;;;6194713;28;20365;-73
2022/09/23 03:30:13;;;;;;;3.13;2.20;;;20.50;55.70;;;;;;6194883;28;20437;-74
2022/09/23 03:33:15;;;;;;;2.58;1.98;;;20.50;55.70;;;;;;6192678;28;20102;-73
2022/09/23 03:39:53;;;;;;;3.67;2.25;;;20.50;55.80;;;;;;6194663;28;20494;-73
2022/09/23 03:43:00;;;;;;;3.13;1.98;;;20.50;55.70;;;;;;6193763;28;20137;-73
2022/09/23 03:46:01;;;;;;;3.05;2.10;;;20.50;55.70;;;;;;6154238;28;20035;-73
2022/09/23 03:49:13;;;;;;;2.90;1.80;;;20.50;55.70;;;;;;6143364;29;20474;-74
2022/09/23 03:52:15;;;;;;;4.25;2.20;;;20.50;55.80;;;;;;6142377;29;20141;-74
2022/09/23 03:55:18;;;;;;;2.53;1.95;;;20.50;55.70;;;;;;6143301;29;20054;-74
2022/09/23 03:58:18;;;;;;;2.55;1.98;;;20.50;55.70;;;;;;6143433;29;20035;-74
2022/09/23 04:01:19;;;;;;;2.53;1.80;;;20.50;55.70;;;;;;6142534;29;20521;-73
2022/09/23 04:04:19;;;;;;;2.88;2.00;;;20.50;55.70;;;;;;6142439;28;20039;-74
2022/09/23 04:07:20;;;;;;;3.47;2.40;;;20.50;55.70;;;;;;6142833;29;20115;-72
2022/09/23 04:10:21;;;;;;;2.65;1.67;;;20.50;55.70;;;;;;6142736;29;20043;-74
2022/09/23 04:13:22;;;;;;;3.88;2.35;;;20.50;55.70;;;;;;6141883;28;20498;-73
2022/09/23 04:16:23;;;;;;;2.35;1.70;;;20.50;55.70;;;;;;6162835;28;20089;-74
2022/09/23 04:19:24;;;;;;;3.20;1.95;;;20.50;55.70;;;;;;6193742;28;20097;-72
2022/09/23 04:22:25;;;;;;;2.88;1.95;;;20.50;55.80;;;;;;6191285;28;20077;-73
2022/09/23 04:25:25;;;;;;;2.78;1.70;;;20.50;55.70;;;;;;6193689;28;20373;-73
2022/09/23 04:28:26;;;;;;;2.78;2.13;;;20.50;55.70;;;;;;6193505;28;20029;-73
2022/09/23 04:31:27;;;;;;;2.88;2.17;;;20.50;55.80;;;;;;6193954;28;20022;-74
2022/09/23 04:34:28;;;;;;;2.90;2.03;;;20.50;55.70;;;;;;6194048;28;20030;-73
2022/09/23 04:37:29;;;;;;;2.30;1.98;;;20.50;55.80;;;;;;6192342;28;20315;-75
2022/09/23 04:40:30;;;;;;;3.42;2.38;;;20.50;55.70;;;;;;6191834;28;20152;-73
2022/09/23 04:43:30;;;;;;;3.50;2.47;;;20.50;55.80;;;;;;6193037;28;20064;-73
2022/09/23 04:46:31;;;;;;;2.33;1.73;;;20.50;55.80;;;;;;6192633;28;20054;-73
2022/09/23 04:49:32;;;;;;;3.00;1.98;;;20.50;55.70;;;;;;6193496;28;20019;-73
2022/09/23 04:52:33;;;;;;;2.80;1.92;;;20.50;55.80;;;;;;6193408;28;20084;-73
2022/09/23 04:55:33;;;;;;;2.70;1.90;;;20.50;55.70;;;;;;6193255;28;20030;-73
2022/09/23 04:58:34;;;;;;;2.42;1.80;;;20.50;55.80;;;;;;6193430;28;20033;-73
2022/09/23 05:01:35;;;;;;;2.95;2.10;;;20.50;55.80;;;;;;6186021;28;20031;-73
2022/09/23 05:04:36;;;;;;;3.28;2.03;;;20.50;55.70;;;;;;6191844;28;20136;-73
2022/09/23 05:07:38;;;;;;;2.42;1.90;;;20.50;55.60;;;;;;6191398;28;20056;-74
2022/09/23 05:10:38;;;;;;;2.55;1.80;;;20.50;55.80;;;;;;6193578;28;20509;-73
2022/09/23 05:13:39;;;;;;;2.47;2.00;;;20.50;55.80;;;;;;6192696;28;20026;-73
2022/09/23 05:16:40;;;;;;;2.60;2.00;;;20.50;55.80;;;;;;6191237;28;20609;-74
2022/09/23 05:19:41;;;;;;;1.85;1.48;;;20.50;55.70;;;;;;6183905;28;20073;-73
2022/09/23 05:22:41;;;;;;;2.50;1.83;;;20.50;55.70;;;;;;6190063;28;20030;-74
2022/09/23 05:25:44;;;;;;;1.92;1.60;;;20.50;55.70;;;;;;6193225;28;20034;-73
2022/09/23 05:28:44;;;;;;;2.58;1.90;;;20.50;55.70;;;;;;6197053;28;20026;-74
2022/09/23 05:31:45;;;;;;;2.97;2.00;;;20.50;55.80;;;;;;6196128;28;20082;-74
2022/09/23 05:34:46;;;;;;;3.05;1.80;;;20.50;55.70;;;;;;6196979;28;20027;-73
2022/09/23 05:37:46;;;;;;;2.47;1.77;;;20.50;55.80;;;;;;6195994;28;20032;-74
2022/09/23 05:40:54;;;;;;;2.28;1.60;;;20.50;55.80;;;;;;6196190;28;20032;-74
2022/09/23 05:43:55;;;;;;;2.90;1.90;;;20.50;55.80;;;;;;6196093;28;20108;-73
2022/09/23 05:46:56;;;;;;;4.53;1.92;;;20.50;55.80;;;;;;6207579;28;20498;-74
2022/09/23 05:49:57;;;;;;;3.00;1.75;;;20.50;55.80;;;;;;6185903;28;20054;-73
2022/09/23 05:52:58;;;;;;;2.40;1.73;;;20.50;56.00;;;;;;6195976;28;20053;-74
2022/09/23 05:55:59;;;;;;;3.70;2.10;;;20.50;55.90;;;;;;6184373;28;20022;-74
2022/09/23 05:59:02;;;;;;;2.40;1.60;;;20.50;55.70;;;;;;6195475;28;20038;-74
2022/09/23 06:02:03;;;;;;;2.90;2.10;;;20.50;55.80;;;;;;6194007;28;20496;-74
2022/09/23 06:05:04;;;;;;;2.80;1.77;;;20.50;55.80;;;;;;6198280;28;20077;-74
2022/09/23 06:08:06;;;;;;;3.10;1.90;;;20.60;55.80;;;;;;6195514;28;20393;-72
2022/09/23 06:11:07;;;;;;;2.50;1.90;;;20.50;55.80;;;;;;6198206;28;20033;-74
2022/09/23 06:14:11;;;;;;;3.15;1.95;;;20.50;55.80;;;;;;6196262;28;20035;-74
2022/09/23 06:17:11;;;;;;;2.58;1.90;;;20.50;55.80;;;;;;6194618;28;20350;-71
2022/09/23 06:20:12;;;;;;;2.60;1.90;;;20.50;55.80;;;;;;6198083;28;20546;-74
2022/09/23 06:23:13;;;;;;;4.00;1.98;;;20.50;55.80;;;;;;6197072;28;20046;-73
2022/09/23 06:26:15;;;;;;;2.95;2.03;;;20.50;55.80;;;;;;6195401;28;20034;-74
2022/09/23 06:29:17;;;;;;;2.97;1.90;;;20.50;55.90;;;;;;6212152;28;20105;-75
2022/09/23 06:32:18;;;;;;;2.85;1.98;;;20.50;55.60;;;;;;6195938;28;20037;-75
2022/09/23 06:35:21;;;;;;;3.17;1.70;;;20.60;55.70;;;;;;6196568;28;20509;-74
2022/09/23 06:38:21;;;;;;;3.53;2.10;;;20.60;55.80;;;;;;6197170;28;20536;-74
2022/09/23 06:41:22;;;;;;;2.30;1.80;;;20.50;55.60;;;;;;6196407;28;20027;-76
2022/09/23 06:44:23;;;;;;;3.17;2.13;;;20.50;55.70;;;;;;6194712;28;20379;-75
2022/09/23 06:47:23;;;;;;;4.03;2.00;;;20.60;55.90;;;;;;6196443;28;20026;-75
2022/09/23 06:50:25;;;;;;;4.22;2.35;;;20.60;55.80;;;;;;6195461;28;20034;-75
2022/09/23 06:53:26;;;;;;;4.95;2.00;;;20.60;55.80;;;;;;6196055;28;20023;-74
2022/09/23 06:56:26;;;;;;;4.35;2.30;;;20.60;56.00;;;;;;6196973;28;20517;-76
2022/09/23 06:59:27;;;;;;;4.13;2.10;;;20.60;56.00;;;;;;6196421;28;20027;-75
2022/09/23 07:02:28;;;;;;;3.30;2.22;;;20.60;56.00;;;;;;6194812;28;20046;-75
2022/09/23 07:05:28;;;;;;;3.90;2.42;;;20.60;56.00;;;;;;6196534;28;20026;-76
2022/09/23 07:08:32;;;;;;;3.50;1.88;;;20.70;56.10;;;;;;6194687;28;20033;-75
2022/09/23 07:11:33;;;;;;;2.90;2.10;;;20.70;56.00;;;;;;6180645;28;20030;-75
2022/09/23 07:14:33;;;;;;;3.42;2.15;;;20.70;55.80;;;;;;6194591;28;20583;-75
2022/09/23 07:17:34;;;;;;;3.20;1.88;;;20.70;56.00;;;;;;6195956;28;20034;-74
2022/09/23 07:20:35;;;;;;;3.22;1.83;;;20.70;56.00;;;;;;6196580;28;20080;-74
2022/09/23 07:23:36;;;;;;;5.47;1.80;;;20.60;55.90;;;;;;6196148;28;20591;-74
2022/09/23 07:26:37;;;;;;;2.67;1.80;;;20.60;55.90;;;;;;6196034;28;20417;-74
2022/09/23 07:29:38;;;;;;;2.40;2.00;;;20.60;55.90;;;;;;6195065;28;20022;-74
2022/09/23 07:32:39;;;;;;;3.22;1.90;;;20.60;55.90;;;;;;6196050;28;20029;-75
2022/09/23 07:35:41;;;;;;;2.15;1.80;;;20.60;56.00;;;;;;6193600;28;20462;-74
2022/09/23 07:38:41;;;;;;;3.10;1.80;;;20.60;56.00;;;;;;6195893;28;20034;-74
2022/09/23 07:41:43;;;;;;;3.08;1.63;;;20.60;56.00;;;;;;6195710;28;20062;-73
2022/09/23 07:44:44;;;;;;;2.53;1.60;;;20.60;56.00;;;;;;6195418;28;20527;-74
2022/09/23 07:47:44;;;;;;;3.17;1.40;;;20.60;56.00;;;;;;6194842;28;20027;-73
2022/09/23 07:50:45;;;;;;;3.90;1.50;;;20.60;56.00;;;;;;6195878;28;20034;-74
2022/09/23 07:53:48;;;;;;;4.20;1.60;;;20.60;56.10;;;;;;6195572;28;20481;-74
2022/09/23 07:56:48;;;;;;;3.05;1.55;;;20.50;56.00;;;;;;6195525;28;20019;-74
2022/09/23 07:59:49;;;;;;;2.05;1.50;;;20.60;56.20;;;;;;6195204;28;20145;-73
2022/09/23 08:02:50;;;;;;;4.90;1.98;;;20.50;56.10;;;;;;6190907;28;20038;-74
2022/09/23 08:05:52;;;;;;;2.72;1.60;;;20.60;56.10;;;;;;6194789;28;20545;-74
2022/09/23 08:08:55;;;;;;;4.32;1.75;;;20.50;56.00;;;;;;6194782;28;20250;-74
2022/09/23 08:11:56;;;;;;;2.03;1.63;;;20.60;56.10;;;;;;6193984;28;20125;-74
2022/09/23 08:14:58;;;;;;;5.50;1.63;;;20.60;56.10;;;;;;6194578;28;20038;-74
2022/09/23 08:17:59;;;;;;;3.38;1.33;;;20.50;56.00;;;;;;6195161;28;20027;-75
2022/09/23 08:21:00;;;;;;;2.15;1.52;;;20.50;56.10;;;;;;6194685;28;20450;-75
2022/09/23 08:24:00;;;;;;;3.25;2.00;;;20.50;56.10;;;;;;6190818;28;20061;-75
2022/09/23 08:27:01;;;;;;;2.50;1.60;;;20.50;56.10;;;;;;6192326;28;20041;-74
2022/09/23 08:30:02;;;;;;;2.17;1.50;;;20.50;56.80;;;;;;6194867;28;20490;-74
2022/09/23 08:33:02;;;;;;;3.20;1.60;;;20.50;56.10;;;;;;6195073;28;20106;-74
2022/09/23 08:36:03;;;;;;;2.78;1.45;;;20.50;56.10;;;;;;6194636;28;20062;-75
2022/09/23 08:39:05;;;;;;;1.95;1.40;;;20.50;56.10;;;;;;6194407;28;20469;-74
2022/09/23 08:42:26;;;;;;;3.05;1.80;;;20.50;56.10;;;;;;6194674;28;20062;-74
2022/09/23 08:45:27;;;;;;;3.92;1.77;;;20.50;56.00;;;;;;6194277;28;20392;-73
2022/09/23 08:48:37;;;;;;;1.98;1.45;;;20.50;56.00;;;;;;6171351;28;20022;-73
2022/09/23 08:51:46;;;;;;;4.07;1.70;;;20.50;56.10;;;;;;6181018;28;20393;-75
2022/09/23 08:54:46;;;;;;;2.53;1.70;;;20.50;56.10;;;;;;6143750;29;20118;-74
2022/09/23 08:58:02;;;;;;;2.05;1.45;;;20.50;56.10;;;;;;6146078;28;20538;-74
2022/09/23 09:01:06;;;;;;;5.35;1.63;;;20.50;56.00;;;;;;6149058;29;20324;-74
2022/09/23 09:04:31;;;;;;;1.70;1.30;;;20.50;55.80;;;;;;6132976;29;20047;-74
2022/09/23 09:07:39;;;;;;;1.92;1.60;;;20.50;55.90;;;;;;6149034;29;20035;-74
2022/09/23 09:10:45;;;;;;;2.70;1.80;;;20.50;55.90;;;;;;6149354;29;20035;-74
2022/09/23 09:14:10;;;;;;;2.72;1.40;;;20.50;56.00;;;;;;6148647;29;20043;-75
2022/09/23 09:17:26;;;;;;;3.17;1.60;;;20.50;56.00;;;;;;6148284;29;20047;-74
2022/09/23 09:20:42;;;;;;;2.35;1.42;;;20.50;56.00;;;;;;6148551;29;20041;-74
2022/09/23 09:23:54;;;;;;;1.50;1.20;;;20.50;55.90;;;;;;6148227;29;20043;-74
2022/09/23 09:26:55;;;;;;;1.40;1.30;;;20.50;55.90;;;;;;6198328;28;20081;-74
2022/09/23 09:29:57;;;;;;;2.78;1.48;;;20.50;55.90;;;;;;6199646;28;20045;-74
2022/09/23 09:33:02;;;;;;;2.65;1.42;;;20.50;55.90;;;;;;6199326;28;20489;-74
2022/09/23 09:36:39;;;;;;;2.65;1.50;;;20.50;55.90;;;;;;6197497;28;20026;-75
2022/09/23 09:39:40;;;;;;;1.40;1.08;;;20.50;56.00;;;;;;6175146;28;20057;-75
2022/09/23 09:42:45;;;;;;;2.60;1.58;;;20.50;55.90;;;;;;6185372;28;20080;-75
2022/09/23 09:46:09;;;;;;;3.28;1.45;;;20.50;56.00;;;;;;6199082;28;20031;-74
2022/09/23 09:49:27;;;;;;;4.28;1.50;;;20.50;56.00;;;;;;6198125;28;20437;-74
2022/09/23 09:52:28;;;;;;;1.80;1.30;;;20.50;56.10;;;;;;6199070;28;20433;-74
2022/09/23 09:55:29;;;;;;;3.22;1.55;;;20.50;56.00;;;;;;6198994;28;20334;-74
2022/09/23 09:58:39;;;;;;;2.92;1.48;;;20.50;56.00;;;;;;6199003;28;20023;-75
2022/09/23 10:01:40;;;;;;;1.10;1.00;;;20.50;56.20;;;;;;6198522;28;20034;-75
2022/09/23 10:04:41;;;;;;;2.55;1.35;;;20.50;56.00;;;;;;6197018;28;20559;-75
2022/09/23 10:07:42;;;;;;;1.80;1.20;;;20.50;56.00;;;;;;6198562;28;20054;-74
2022/09/23 10:10:58;;;;;;;1.70;1.33;;;20.50;56.00;;;;;;6197916;28;20037;-74
2022/09/23 10:13:59;;;;;;;2.10;1.50;;;20.50;56.00;;;;;;6198633;28;20711;-74
2022/09/23 10:17:05;;;;;;;2.55;1.40;;;20.60;56.20;;;;;;6198362;28;20053;-74
2022/09/23 10:20:08;;;;;;;2.17;1.48;;;20.50;56.10;;;;;;6189354;28;20030;-74
2022/09/23 10:23:18;;;;;;;1.60;1.35;;;20.50;56.10;;;;;;6206197;28;20386;-75
2022/09/23 10:26:31;;;;;;;2.42;1.35;;;20.50;56.00;;;;;;6221483;28;20022;-74
2022/09/23 10:29:38;;;;;;;3.60;1.58;;;20.50;56.00;;;;;;6222597;28;20060;-73
2022/09/23 10:32:44;;;;;;;1.40;1.08;;;20.50;56.00;;;;;;6220845;28;20527;-74
2022/09/23 10:35:56;;;;;;;2.83;1.25;;;20.50;56.00;;;;;;6221735;28;20029;-74
2022/09/23 10:49:33;;;;;;;1.83;1.30;;;20.50;55.80;;;;;;6200510;28;20390;-76
2022/09/23 10:52:46;;;;;;;1.85;1.30;;;20.50;55.80;;;;;;6199906;28;20054;-75
2022/09/23 10:55:46;;;;;;;1.63;1.13;;;20.60;55.80;;;;;;6199490;28;20040;-75
2022/09/23 10:59:02;;;;;;;2.00;1.17;;;20.60;55.80;;;;;;6208643;28;20034;-75
2022/09/23 11:02:35;;;;;;;2.00;1.20;;;20.60;55.80;;;;;;6199192;28;20035;-75
2022/09/23 11:06:03;;;;;;;1.52;1.25;;;20.60;55.80;;;;;;6153001;28;20077;-75
2022/09/23 11:09:29;;;;;;;1.55;1.20;;;20.70;56.00;;;;;;6187263;28;20049;-75
2022/09/23 11:12:32;;;;;;;3.17;1.20;;;20.70;55.90;;;;;;6211437;28;20108;-73
2022/09/23 11:15:56;;;;;;;2.35;1.13;;;20.70;55.60;;;;;;6220067;28;20105;-74
2022/09/23 11:19:00;;;;;;;1.60;1.20;;;20.70;55.70;;;;;;6210280;28;20520;-74
2022/09/23 11:22:23;;;;;;;2.97;1.55;;;20.70;55.80;;;;;;6219775;28;20033;-74
2022/09/23 11:25:42;;;;;;;4.32;1.08;;;20.60;55.80;;;;;;6224967;28;20057;-74
2022/09/23 11:29:05;;;;;;;1.45;1.08;;;20.60;55.90;;;;;;6213337;28;20116;-73
2022/09/23 11:32:13;;;;;;;1.65;1.23;;;20.60;55.90;;;;;;6220345;28;20034;-74
2022/09/23 11:35:40;;;;;;;1.75;1.30;;;20.60;55.90;;;;;;6220013;28;20038;-75
2022/09/23 11:38:48;;;;;;;4.30;1.27;;;20.60;55.90;;;;;;6219960;28;20084;-73
2022/09/23 11:41:53;;;;;;;1.65;1.13;;;20.60;56.00;;;;;;6220005;28;20053;-74
2022/09/23 11:45:12;;;;;;;1.92;0.90;;;20.60;56.00;;;;;;6220040;28;20022;-74
2022/09/23 11:48:24;;;;;;;5.35;1.30;;;20.60;56.00;;;;;;6220363;28;20045;-74
2022/09/23 11:51:36;;;;;;;5.20;1.00;;;20.60;56.80;;;;;;6195350;28;20030;-74
2022/09/23 11:54:44;;;;;;;3.22;1.70;;;20.60;56.10;;;;;;6215017;28;20439;-73
2022/09/23 11:57:50;;;;;;;1.30;0.90;;;20.60;56.10;;;;;;6219905;28;20068;-75
2022/09/23 12:01:18;;;;;;;1.42;1.02;;;20.60;56.10;;;;;;6219472;28;20026;-75
2022/09/23 12:04:39;;;;;;;1.08;0.88;;;20.60;56.10;;;;;;6213844;28;20481;-75
2022/09/23 12:07:55;;;;;;;1.70;1.25;;;20.60;56.10;;;;;;6219359;28;20393;-75
2022/09/23 12:11:01;;;;;;;3.35;1.00;;;20.60;56.20;;;;;;6227907;28;20492;-74
2022/09/23 12:14:40;;;;;;;1.77;1.33;;;20.60;56.20;;;;;;6228766;28;20485;-74
2022/09/23 12:17:48;;;;;;;1.23;1.10;;;20.60;56.10;;;;;;6160318;28;20093;-72
2022/09/23 12:21:07;;;;;;;2.13;1.00;;;20.60;56.20;;;;;;6217787;28;20366;-74
2022/09/23 12:24:16;;;;;;;3.33;0.90;;;20.60;56.30;;;;;;6217870;28;20095;-71
2022/09/23 12:27:44;;;;;;;1.30;0.93;;;20.60;56.20;;;;;;6217873;28;20104;-74
2022/09/23 12:30:46;;;;;;;2.90;1.20;;;20.60;56.30;;;;;;6208492;28;20060;-74
2022/09/23 12:33:49;;;;;;;1.92;1.02;;;20.60;56.30;;;;;;6218111;28;20069;-74
2022/09/23 12:36:50;;;;;;;1.65;0.95;;;20.60;56.30;;;;;;6218494;28;20022;-74
2022/09/23 12:39:51;;;;;;;1.15;1.00;;;20.60;56.30;;;;;;6218462;28;20053;-74
2022/09/23 12:42:52;;;;;;;1.73;1.20;;;20.60;56.30;;;;;;6218099;28;20049;-74
2022/09/23 12:45:54;;;;;;;6.30;1.05;;;20.60;56.40;;;;;;6218974;28;20056;-73
2022/09/23 12:48:58;;;;;;;1.95;0.93;;;20.60;56.30;;;;;;6218437;28;20030;-74
2022/09/23 12:52:11;;;;;;;1.77;1.20;;;20.60;56.30;;;;;;6218139;28;20049;-75
2022/09/23 12:55:32;;;;;;;1.20;0.80;;;20.60;56.30;;;;;;6216399;28;20556;-74
2022/09/23 12:58:42;;;;;;;1.90;1.00;;;20.60;56.50;;;;;;6206863;28;20049;-74
2022/09/23 13:01:43;;;;;;;3.78;0.93;;;20.60;56.40;;;;;;6218090;28;20489;-74
2022/09/23 13:08:37;;;;;;;1.30;0.80;;;20.60;56.40;;;;;;6217885;28;20436;-75
2022/09/23 13:11:42;;;;;;;1.52;0.90;;;20.60;56.40;;;;;;6217727;28;20014;-75
2022/09/23 13:14:45;;;;;;;1.63;1.17;;;20.60;56.40;;;;;;6215969;28;20040;-75
2022/09/23 13:17:46;;;;;;;2.42;1.10;;;20.60;56.50;;;;;;6217407;28;20021;-74
2022/09/23 13:20:47;;;;;;;0.85;0.80;;;20.60;56.50;;;;;;6217232;28;20417;-74
2022/09/23 13:24:17;;;;;;;0.70;0.70;;;20.60;56.50;;;;;;6210631;28;20042;-74
2022/09/23 13:27:28;;;;;;;2.50;1.00;;;20.60;56.40;;;;;;6216941;28;20049;-74
2022/09/23 13:30:29;;;;;;;1.80;0.90;;;20.60;56.40;;;;;;6217286;28;20460;-75
2022/09/23 13:33:44;;;;;;;2.08;1.15;;;20.60;56.40;;;;;;6218262;28;20030;-74
2022/09/23 13:36:46;;;;;;;1.60;0.90;;;20.60;56.40;;;;;;6217183;28;20476;-74
2022/09/23 13:39:47;;;;;;;1.08;0.82;;;20.60;56.40;;;;;;6217232;28;20049;-74
2022/09/23 13:42:53;;;;;;;2.40;0.93;;;20.60;56.40;;;;;;6217414;28;20056;-73
2022/09/23 13:45:54;;;;;;;0.90;0.70;;;20.50;56.30;;;;;;6234893;28;20357;-74
2022/09/23 13:48:55;;;;;;;1.50;0.90;;;20.60;56.40;;;;;;6245901;28;20452;-74
2022/09/23 13:51:56;;;;;;;2.42;1.00;;;20.50;56.30;;;;;;6220816;28;20040;-75
2022/09/23 13:54:57;;;;;;;2.72;0.90;;;20.60;56.70;;;;;;6221960;28;20105;-75
2022/09/23 13:58:19;;;;;;;1.25;0.70;;;20.60;56.40;;;;;;6221600;28;20045;-74
2022/09/23 14:01:38;;;;;;;0.77;0.60;;;20.60;57.10;;;;;;6221704;28;20030;-75
2022/09/23 14:04:39;;;;;;;1.63;0.82;;;20.60;56.40;;;;;;6221927;28;20041;-74
2022/09/23 14:07:40;;;;;;;2.38;0.90;;;20.60;56.40;;;;;;6207974;28;20030;-74
2022/09/23 14:10:44;;;;;;;0.80;0.70;;;20.60;56.50;;;;;;6222226;28;20033;-75
2022/09/23 14:13:47;;;;;;;4.15;1.08;;;20.60;56.40;;;;;;6197201;28;20097;-71
2022/09/23 14:16:49;;;;;;;3.95;0.70;;;20.60;56.40;;;;;;6210208;28;20369;-74
2022/09/23 14:19:50;;;;;;;6.88;1.13;;;20.60;56.40;;;;;;6220695;28;20052;-73
2022/09/23 14:23:11;;;;;;;4.85;1.10;;;20.60;56.60;;;;;;6221116;28;20025;-73
2022/09/23 14:26:11;;;;;;;1.33;0.85;;;20.60;56.50;;;;;;6220777;28;20481;-74
2022/09/23 14:29:28;;;;;;;5.82;1.33;;;20.60;56.50;;;;;;6221557;28;20022;-75
2022/09/23 14:32:29;;;;;;;5.57;0.95;;;20.60;56.60;;;;;;6221473;28;20019;-74
2022/09/23 14:35:41;;;;;;;5.90;1.00;;;20.60;56.60;;;;;;6220416;28;20053;-75
2022/09/23 14:38:50;;;;;;;1.33;0.90;;;20.60;56.80;;;;;;6220341;28;20051;-73
2022/09/23 14:41:51;;;;;;;2.38;1.20;;;20.60;56.80;;;;;;6221319;28;20471;-79
2022/09/23 14:44:52;;;;;;;3.63;0.65;;;20.60;57.30;;;;;;6222360;28;20034;-77
2022/09/23 14:47:59;;;;;;;9.73;1.20;;;20.60;57.10;;;;;;6221483;28;20057;-77
2022/09/23 14:51:06;;;;;;;10.98;1.17;;;20.60;56.70;;;;;;6220755;28;20025;-77
2022/09/23 14:54:37;;;;;;;11.45;1.40;;;20.60;56.30;;;;;;6219998;28;20030;-77
2022/09/23 14:57:39;;;;;;;9.63;1.40;;;20.60;55.70;;;;;;6219584;28;20113;-78
2022/09/23 15:00:50;;;;;;;3.55;1.27;;;20.60;55.60;;;;;;6219087;28;20034;-77
2022/09/23 15:03:53;;;;;;;2.15;1.00;;;20.60;55.70;;;;;;6209957;28;20129;-77
2022/09/23 15:07:04;;;;;;;2.55;0.80;;;20.60;55.60;;;;;;6218400;28;20061;-78
2022/09/23 15:10:15;;;;;;;2.40;0.88;;;20.50;55.30;;;;;;6220436;28;20243;-76
2022/09/23 15:13:20;;;;;;;3.08;1.27;;;20.50;55.30;;;;;;6220212;28;20034;-77
2022/09/23 15:16:26;;;;;;;5.63;1.00;;;20.50;55.20;;;;;;6219263;28;20026;-76
2022/09/23 15:19:30;;;;;;;1.55;0.82;;;20.50;55.00;;;;;;6218946;28;20405;-77
2022/09/23 15:22:31;;;;;;;2.45;1.05;;;20.50;54.80;;;;;;6218211;28;20096;-77
2022/09/23 15:25:39;;;;;;;2.65;0.88;;;20.50;54.80;;;;;;6230185;28;20026;-78
2022/09/23 15:28:41;;;;;;;3.78;1.15;;;20.50;55.20;;;;;;6220268;28;20022;-78
2022/09/23 15:31:41;;;;;;;2.35;1.25;;;20.50;55.00;;;;;;6220350;28;20064;-77
2022/09/23 15:34:42;;;;;;;1.90;1.20;;;20.50;54.90;;;;;;6219966;28;20499;-75
2022/09/23 15:37:44;;;;;;;6.28;1.10;;;20.50;54.20;;;;;;6217306;28;20049;-75
2022/09/23 15:40:46;;;;;;;3.45;1.23;;;20.50;54.60;;;;;;6219675;28;20029;-77
2022/09/23 15:43:47;;;;;;;2.92;1.05;;;20.50;54.60;;;;;;6219263;28;20058;-77
2022/09/23 15:46:50;;;;;;;2.10;1.20;;;20.50;54.30;;;;;;6219540;28;20025;-78
2022/09/23 15:49:51;;;;;;;2.85;1.58;;;20.50;54.30;;;;;;6218305;28;20078;-77
2022/09/23 15:52:52;;;;;;;2.75;1.70;;;20.50;54.40;;;;;;6219723;28;20026;-76
2022/09/23 15:55:53;;;;;;;9.43;1.80;;;20.50;53.20;;;;;;6221706;28;20053;-79
2022/09/23 15:58:53;;;;;;;4.82;1.92;;;20.60;53.30;;;;;;6220064;28;20033;-79
2022/09/23 16:01:55;;;;;;;9.15;1.77;;;20.60;53.30;;;;;;6219188;28;20026;-77
2022/09/23 16:04:56;;;;;;;5.35;1.63;;;20.60;54.40;;;;;;6219236;28;20091;-76
2022/09/23 16:07:56;;;;;;;6.30;1.60;;;20.60;53.00;;;;;;6218005;28;20042;-77
2022/09/23 16:10:57;;;;;;;3.40;1.35;;;20.50;53.00;;;;;;6212101;28;20109;-76
2022/09/23 16:14:02;;;;;;;4.10;1.45;;;20.50;53.50;;;;;;6218197;28;20022;-77
2022/09/23 16:17:03;;;;;;;2.60;1.20;;;20.50;53.60;;;;;;6206839;28;20061;-77
2022/09/23 16:20:04;;;;;;;7.65;1.70;;;20.50;53.70;;;;;;6216709;28;20036;-77
2022/09/23 16:23:32;;;;;;;5.45;1.90;;;20.50;53.80;;;;;;6217280;28;20037;-79
2022/09/23 16:26:34;;;;;;;6.03;1.40;;;20.50;53.50;;;;;;6216593;28;20026;-76
2022/09/23 16:29:35;;;;;;;5.47;1.88;;;20.50;52.90;;;;;;6218065;28;20059;-78